sensor_id;sensor_type;location;lat;lon;timestamp;pressure;altitude;pressure_sealevel;temperature;humidity
63194;BME280;49289;51.670;5.624;2022-11-15T00:00:47;100989.92;;;14.75;59.92
63194;BME280;49289;51.670;5.624;2022-11-15T00:02:35;100982.43;;;14.80;59.84
63194;BME280;49289;51.670;5.624;2022-11-15T00:04:23;100984.05;;;14.79;59.95
63194;BME280;49289;51.670;5.624;2022-11-15T00:06:13;101001.97;;;14.78;60.41
63194;BME280;49289;51.670;5.624;2022-11-15T00:08:02;101000.13;;;14.80;60.49
63194;BME280;49289;51.670;5.624;2022-11-15T00:09:50;100997.83;;;14.78;60.77
63194;BME280;49289;51.670;5.624;2022-11-15T00:11:39;100976.98;;;14.70;60.86
63194;BME280;49289;51.670;5.624;2022-11-15T00:13:27;100993.47;;;14.87;60.75
63194;BME280;49289;51.670;5.624;2022-11-15T00:15:14;100996.02;;;14.90;60.73
63194;BME280;49289;51.670;5.624;2022-11-15T00:17:01;100976.27;;;14.68;61.29
63194;BME280;49289;51.670;5.624;2022-11-15T00:18:50;100973.71;;;14.71;61.32
63194;BME280;49289;51.670;5.624;2022-11-15T00:20:39;100996.40;;;14.64;61.93
63194;BME280;49289;51.670;5.624;2022-11-15T00:22:31;100995.89;;;14.79;61.62
63194;BME280;49289;51.670;5.624;2022-11-15T00:24:14;100976.88;;;14.60;61.93
63194;BME280;49289;51.670;5.624;2022-11-15T00:26:08;100983.11;;;14.64;62.02
63194;BME280;49289;51.670;5.624;2022-11-15T00:27:54;101001.55;;;14.81;61.79
63194;BME280;49289;51.670;5.624;2022-11-15T00:29:42;100990.36;;;14.92;61.53
63194;BME280;49289;51.670;5.624;2022-11-15T00:31:29;100990.81;;;15.02;61.45
63194;BME280;49289;51.670;5.624;2022-11-15T00:33:17;100968.72;;;14.95;61.42
63194;BME280;49289;51.670;5.624;2022-11-15T00:35:05;100988.20;;;15.10;61.37
63194;BME280;49289;51.670;5.624;2022-11-15T00:36:53;100970.63;;;14.99;61.54
63194;BME280;49289;51.670;5.624;2022-11-15T00:38:43;100965.75;;;15.04;61.49
63194;BME280;49289;51.670;5.624;2022-11-15T00:40:30;100983.33;;;15.17;61.45
63194;BME280;49289;51.670;5.624;2022-11-15T00:42:17;100982.86;;;15.18;61.44
63194;BME280;49289;51.670;5.624;2022-11-15T00:44:04;100985.10;;;15.05;61.88
63194;BME280;49289;51.670;5.624;2022-11-15T00:45:51;100980.94;;;15.11;61.92
63194;BME280;49289;51.670;5.624;2022-11-15T00:47:39;100975.16;;;15.18;61.80
63194;BME280;49289;51.670;5.624;2022-11-15T00:49:27;100974.11;;;15.28;61.48
63194;BME280;49289;51.670;5.624;2022-11-15T00:51:15;100983.86;;;15.39;61.33
63194;BME280;49289;51.670;5.624;2022-11-15T00:53:04;100960.90;;;15.36;61.16
63194;BME280;49289;51.670;5.624;2022-11-15T00:54:52;100973.47;;;15.50;60.96
63194;BME280;49289;51.670;5.624;2022-11-15T00:56:40;100957.26;;;15.33;61.16
63194;BME280;49289;51.670;5.624;2022-11-15T00:58:28;100968.43;;;15.43;61.23
63194;BME280;49289;51.670;5.624;2022-11-15T01:00:17;100968.90;;;15.49;61.15
63194;BME280;49289;51.670;5.624;2022-11-15T01:02:05;100964.33;;;15.18;62.27
63194;BME280;49289;51.670;5.624;2022-11-15T01:03:53;100965.14;;;15.41;61.64
63194;BME280;49289;51.670;5.624;2022-11-15T01:05:42;100959.89;;;15.53;61.35
63194;BME280;49289;51.670;5.624;2022-11-15T01:07:29;100945.37;;;15.55;61.13
63194;BME280;49289;51.670;5.624;2022-11-15T01:09:16;100960.64;;;15.66;61.06
63194;BME280;49289;51.670;5.624;2022-11-15T01:11:06;100945.75;;;15.59;61.00
63194;BME280;49289;51.670;5.624;2022-11-15T01:12:54;100959.00;;;15.75;60.94
63194;BME280;49289;51.670;5.624;2022-11-15T01:14:43;100960.31;;;15.70;61.16
63194;BME280;49289;51.670;5.624;2022-11-15T01:16:31;100960.96;;;15.73;61.02
63194;BME280;49289;51.670;5.624;2022-11-15T01:18:19;100945.48;;;15.69;61.02
63194;BME280;49289;51.670;5.624;2022-11-15T01:20:07;100942.94;;;15.70;60.95
63194;BME280;49289;51.670;5.624;2022-11-15T01:21:54;100941.16;;;15.68;61.09
63194;BME280;49289;51.670;5.624;2022-11-15T01:23:41;100936.17;;;15.63;61.21
63194;BME280;49289;51.670;5.624;2022-11-15T01:25:28;100933.20;;;15.58;61.50
63194;BME280;49289;51.670;5.624;2022-11-15T01:27:15;100945.48;;;15.77;61.48
63194;BME280;49289;51.670;5.624;2022-11-15T01:29:02;100945.48;;;15.73;61.73
63194;BME280;49289;51.670;5.624;2022-11-15T01:30:49;100951.98;;;15.75;61.71
63194;BME280;49289;51.670;5.624;2022-11-15T01:32:37;100928.03;;;15.73;61.58
63194;BME280;49289;51.670;5.624;2022-11-15T01:34:25;100921.52;;;15.74;61.66
63194;BME280;49289;51.670;5.624;2022-11-15T01:36:16;100921.56;;;15.81;61.52
63194;BME280;49289;51.670;5.624;2022-11-15T01:38:03;100915.92;;;15.80;61.59
63194;BME280;49289;51.670;5.624;2022-11-15T01:39:52;100930.22;;;15.60;62.47
63194;BME280;49289;51.670;5.624;2022-11-15T01:41:40;100928.20;;;15.88;62.03
63194;BME280;49289;51.670;5.624;2022-11-15T01:43:34;100929.13;;;15.78;62.41
63194;BME280;49289;51.670;5.624;2022-11-15T01:45:21;100910.66;;;15.48;63.33
63194;BME280;49289;51.670;5.624;2022-11-15T01:47:09;100914.53;;;15.68;62.74
63194;BME280;49289;51.670;5.624;2022-11-15T01:48:57;100925.58;;;15.86;62.59
63194;BME280;49289;51.670;5.624;2022-11-15T01:50:44;100929.66;;;15.95;62.25
63194;BME280;49289;51.670;5.624;2022-11-15T01:52:33;100929.94;;;15.88;62.43
63194;BME280;49289;51.670;5.624;2022-11-15T01:54:21;100913.81;;;15.89;62.10
63194;BME280;49289;51.670;5.624;2022-11-15T01:56:10;100912.41;;;15.89;62.02
63194;BME280;49289;51.670;5.624;2022-11-15T01:57:57;100925.74;;;15.94;62.38
63194;BME280;49289;51.670;5.624;2022-11-15T01:59:44;100916.19;;;15.96;62.04
63194;BME280;49289;51.670;5.624;2022-11-15T02:01:33;100915.03;;;16.01;61.84
63194;BME280;49289;51.670;5.624;2022-11-15T02:03:20;100933.67;;;16.08;61.94
63194;BME280;49289;51.670;5.624;2022-11-15T02:05:09;100917.19;;;16.03;61.85
63194;BME280;49289;51.670;5.624;2022-11-15T02:06:56;100927.68;;;16.23;61.70
63194;BME280;49289;51.670;5.624;2022-11-15T02:08:43;100929.08;;;16.15;61.87
63194;BME280;49289;51.670;5.624;2022-11-15T02:10:30;100928.12;;;16.24;61.63
63194;BME280;49289;51.670;5.624;2022-11-15T02:12:19;100905.77;;;16.08;61.85
63194;BME280;49289;51.670;5.624;2022-11-15T02:14:07;100923.09;;;16.26;61.64
63194;BME280;49289;51.670;5.624;2022-11-15T02:15:58;100906.20;;;16.14;61.62
63194;BME280;49289;51.670;5.624;2022-11-15T02:17:50;100915.80;;;16.25;61.77
63194;BME280;49289;51.670;5.624;2022-11-15T02:19:47;100901.22;;;15.92;62.55
63194;BME280;49289;51.670;5.624;2022-11-15T02:21:33;100911.84;;;16.26;62.04
63194;BME280;49289;51.670;5.624;2022-11-15T02:23:31;100895.08;;;16.21;61.87
63194;BME280;49289;51.670;5.624;2022-11-15T02:25:36;100904.72;;;16.14;62.44
63194;BME280;49289;51.670;5.624;2022-11-15T02:29:44;100864.05;;;16.18;61.81
63194;BME280;49289;51.670;5.624;2022-11-15T02:31:31;100882.15;;;16.33;61.77
63194;BME280;49289;51.670;5.624;2022-11-15T02:33:26;100877.72;;;16.43;61.54
63194;BME280;49289;51.670;5.624;2022-11-15T02:35:12;100893.36;;;16.48;61.64
63194;BME280;49289;51.670;5.624;2022-11-15T02:37:01;100876.95;;;16.38;61.53
63194;BME280;49289;51.670;5.624;2022-11-15T02:38:52;100898.39;;;16.24;62.51
63194;BME280;49289;51.670;5.624;2022-11-15T02:40:38;100899.52;;;16.31;62.38
63194;BME280;49289;51.670;5.624;2022-11-15T02:42:26;100901.30;;;16.12;63.15
63194;BME280;49289;51.670;5.624;2022-11-15T02:44:14;100880.41;;;16.20;62.73
63194;BME280;49289;51.670;5.624;2022-11-15T02:46:03;100880.75;;;16.34;62.35
63194;BME280;49289;51.670;5.624;2022-11-15T02:47:50;100876.97;;;16.40;62.28
63194;BME280;49289;51.670;5.624;2022-11-15T02:49:38;100874.97;;;16.42;62.18
63194;BME280;49289;51.670;5.624;2022-11-15T02:51:25;100866.11;;;16.52;62.01
63194;BME280;49289;51.670;5.624;2022-11-15T02:53:12;100867.83;;;16.38;62.42
63194;BME280;49289;51.670;5.624;2022-11-15T02:55:24;100871.03;;;16.36;62.51
63194;BME280;49289;51.670;5.624;2022-11-15T02:56:37;100886.28;;;16.63;62.16
63194;BME280;49289;51.670;5.624;2022-11-15T02:58:35;100867.59;;;16.34;62.59
63194;BME280;49289;51.670;5.624;2022-11-15T03:00:23;100865.37;;;16.48;62.62
63194;BME280;49289;51.670;5.624;2022-11-15T03:02:18;100868.11;;;16.48;62.56
63194;BME280;49289;51.670;5.624;2022-11-15T03:04:10;100864.02;;;16.15;63.85
63194;BME280;49289;51.670;5.624;2022-11-15T03:05:56;100879.93;;;16.57;63.11
63194;BME280;49289;51.670;5.624;2022-11-15T03:07:46;100877.57;;;16.76;62.56
63194;BME280;49289;51.670;5.624;2022-11-15T03:09:34;100856.45;;;16.72;62.37
63194;BME280;49289;51.670;5.624;2022-11-15T03:11:09;100875.38;;;16.79;62.43
63194;BME280;49289;51.670;5.624;2022-11-15T03:12:56;100858.39;;;16.69;62.41
63194;BME280;49289;51.670;5.624;2022-11-15T03:14:44;100852.02;;;16.66;62.62
63194;BME280;49289;51.670;5.624;2022-11-15T03:16:33;100866.45;;;16.62;63.14
63194;BME280;49289;51.670;5.624;2022-11-15T03:18:21;100868.18;;;16.58;63.18
63194;BME280;49289;51.670;5.624;2022-11-15T03:20:08;100847.48;;;16.29;63.93
63194;BME280;49289;51.670;5.624;2022-11-15T03:21:56;100848.28;;;16.57;63.35
63194;BME280;49289;51.670;5.624;2022-11-15T03:23:44;100852.62;;;16.53;63.35
63194;BME280;49289;51.670;5.624;2022-11-15T03:25:32;100853.69;;;16.70;62.85
63194;BME280;49289;51.670;5.624;2022-11-15T03:27:21;100870.45;;;16.77;63.20
63194;BME280;49289;51.670;5.624;2022-11-15T03:29:08;100850.65;;;16.72;63.04
63194;BME280;49289;51.670;5.624;2022-11-15T03:30:54;100859.11;;;16.78;63.01
63194;BME280;49289;51.670;5.624;2022-11-15T03:32:42;100855.06;;;16.87;62.83
63194;BME280;49289;51.670;5.624;2022-11-15T03:34:32;100875.01;;;16.77;63.54
63194;BME280;49289;51.670;5.624;2022-11-15T03:36:19;100870.38;;;16.92;63.01
63194;BME280;49289;51.670;5.624;2022-11-15T03:38:11;100855.39;;;16.73;63.29
63194;BME280;49289;51.670;5.624;2022-11-15T03:39:56;100863.36;;;16.65;63.89
63194;BME280;49289;51.670;5.624;2022-11-15T03:41:43;100878.83;;;16.92;63.41
63194;BME280;49289;51.670;5.624;2022-11-15T03:43:35;100864.73;;;16.63;64.13
63194;BME280;49289;51.670;5.624;2022-11-15T03:45:25;100877.84;;;16.46;65.08
63194;BME280;49289;51.670;5.624;2022-11-15T03:47:12;100862.94;;;16.51;64.70
63194;BME280;49289;51.670;5.624;2022-11-15T03:49:00;100879.63;;;16.85;64.11
63194;BME280;49289;51.670;5.624;2022-11-15T03:50:48;100860.72;;;16.90;63.47
63194;BME280;49289;51.670;5.624;2022-11-15T03:52:36;100880.14;;;17.12;62.99
63194;BME280;49289;51.670;5.624;2022-11-15T03:54:24;100880.45;;;16.76;64.40
63194;BME280;49289;51.670;5.624;2022-11-15T03:56:11;100859.02;;;16.92;63.60
63194;BME280;49289;51.670;5.624;2022-11-15T03:58:00;100863.86;;;17.10;63.02
63194;BME280;49289;51.670;5.624;2022-11-15T03:59:48;100871.83;;;16.90;63.87
63194;BME280;49289;51.670;5.624;2022-11-15T04:01:36;100876.14;;;17.10;63.56
63194;BME280;49289;51.670;5.624;2022-11-15T04:03:23;100877.20;;;17.21;63.17
63194;BME280;49289;51.670;5.624;2022-11-15T04:05:10;100856.58;;;17.27;62.68
63194;BME280;49289;51.670;5.624;2022-11-15T04:06:58;100855.17;;;17.11;62.85
63194;BME280;49289;51.670;5.624;2022-11-15T04:08:46;100857.18;;;17.22;62.56
63194;BME280;49289;51.670;5.624;2022-11-15T04:10:34;100873.69;;;17.36;62.32
63194;BME280;49289;51.670;5.624;2022-11-15T04:12:23;100871.30;;;17.14;62.80
63194;BME280;49289;51.670;5.624;2022-11-15T04:14:11;100856.23;;;17.10;62.77
63194;BME280;49289;51.670;5.624;2022-11-15T04:15:58;100870.30;;;17.13;63.02
63194;BME280;49289;51.670;5.624;2022-11-15T04:17:46;100867.83;;;17.25;62.68
63194;BME280;49289;51.670;5.624;2022-11-15T04:19:32;100872.50;;;17.11;62.86
63194;BME280;49289;51.670;5.624;2022-11-15T04:21:20;100868.75;;;17.21;62.70
63194;BME280;49289;51.670;5.624;2022-11-15T04:23:09;100854.73;;;17.22;62.52
63194;BME280;49289;51.670;5.624;2022-11-15T04:24:56;100875.22;;;17.32;62.45
63194;BME280;49289;51.670;5.624;2022-11-15T04:26:43;100855.44;;;17.18;62.68
63194;BME280;49289;51.670;5.624;2022-11-15T04:28:31;100872.88;;;17.20;63.15
63194;BME280;49289;51.670;5.624;2022-11-15T04:30:23;100868.30;;;17.29;62.97
63194;BME280;49289;51.670;5.624;2022-11-15T04:32:12;100872.08;;;17.43;62.72
63194;BME280;49289;51.670;5.624;2022-11-15T04:33:59;100854.86;;;17.36;62.60
63194;BME280;49289;51.670;5.624;2022-11-15T04:35:47;100860.64;;;17.40;62.47
63194;BME280;49289;51.670;5.624;2022-11-15T04:37:36;100857.56;;;17.26;63.00
63194;BME280;49289;51.670;5.624;2022-11-15T04:39:24;100874.84;;;17.41;62.84
63194;BME280;49289;51.670;5.624;2022-11-15T04:41:14;100873.25;;;17.51;62.48
63194;BME280;49289;51.670;5.624;2022-11-15T04:43:03;100872.75;;;17.51;62.51
63194;BME280;49289;51.670;5.624;2022-11-15T04:44:52;100852.50;;;17.51;62.31
63194;BME280;49289;51.670;5.624;2022-11-15T04:46:41;100853.90;;;17.49;62.25
63194;BME280;49289;51.670;5.624;2022-11-15T04:48:30;100868.86;;;17.58;62.29
63194;BME280;49289;51.670;5.624;2022-11-15T04:50:20;100859.41;;;17.53;62.15
63194;BME280;49289;51.670;5.624;2022-11-15T04:52:09;100875.13;;;17.56;62.35
63194;BME280;49289;51.670;5.624;2022-11-15T04:54:00;100874.25;;;17.63;62.19
63194;BME280;49289;51.670;5.624;2022-11-15T04:55:51;100870.70;;;17.68;62.00
63194;BME280;49289;51.670;5.624;2022-11-15T04:57:38;100857.19;;;17.61;61.89
63194;BME280;49289;51.670;5.624;2022-11-15T04:59:28;100877.36;;;17.61;62.09
63194;BME280;49289;51.670;5.624;2022-11-15T05:01:19;100860.05;;;17.57;61.94
63194;BME280;49289;51.670;5.624;2022-11-15T05:02:53;100876.20;;;17.66;62.02
63194;BME280;49289;51.670;5.624;2022-11-15T05:04:43;100851.84;;;17.51;62.24
63194;BME280;49289;51.670;5.624;2022-11-15T05:06:33;100852.19;;;17.52;62.22
63194;BME280;49289;51.670;5.624;2022-11-15T05:08:24;100871.08;;;17.57;62.34
63194;BME280;49289;51.670;5.624;2022-11-15T05:10:12;100850.78;;;17.52;62.13
63194;BME280;49289;51.670;5.624;2022-11-15T05:12:02;100853.28;;;17.60;62.04
63194;BME280;49289;51.670;5.624;2022-11-15T05:13:50;100849.02;;;17.58;62.09
63194;BME280;49289;51.670;5.624;2022-11-15T05:15:37;100851.59;;;17.58;62.16
63194;BME280;49289;51.670;5.624;2022-11-15T05:17:27;100863.05;;;17.63;62.13
63194;BME280;49289;51.670;5.624;2022-11-15T05:19:17;100849.80;;;17.53;62.24
63194;BME280;49289;51.670;5.624;2022-11-15T05:21:09;100854.84;;;17.52;62.31
63194;BME280;49289;51.670;5.624;2022-11-15T05:22:56;100860.61;;;17.56;62.46
63194;BME280;49289;51.670;5.624;2022-11-15T05:24:45;100848.31;;;17.29;63.39
63194;BME280;49289;51.670;5.624;2022-11-15T05:26:19;100866.96;;;17.41;63.33
63194;BME280;49289;51.670;5.624;2022-11-15T05:28:07;100864.56;;;17.46;63.12
63194;BME280;49289;51.670;5.624;2022-11-15T05:29:55;100864.24;;;17.47;63.13
63194;BME280;49289;51.670;5.624;2022-11-15T05:31:45;100861.17;;;17.54;63.05
63194;BME280;49289;51.670;5.624;2022-11-15T05:33:33;100863.27;;;17.25;63.95
63194;BME280;49289;51.670;5.624;2022-11-15T05:35:24;100860.26;;;17.29;64.07
63194;BME280;49289;51.670;5.624;2022-11-15T05:37:10;100858.47;;;17.39;63.67
63194;BME280;49289;51.670;5.624;2022-11-15T05:38:59;100841.39;;;17.33;63.52
63194;BME280;49289;51.670;5.624;2022-11-15T05:40:47;100857.44;;;17.47;63.36
63194;BME280;49289;51.670;5.624;2022-11-15T05:42:34;100843.44;;;17.38;63.34
63194;BME280;49289;51.670;5.624;2022-11-15T05:44:24;100844.00;;;17.29;63.67
63194;BME280;49289;51.670;5.624;2022-11-15T05:46:13;100853.92;;;17.40;63.64
63194;BME280;49289;51.670;5.624;2022-11-15T05:48:03;100856.51;;;17.53;63.46
63194;BME280;49289;51.670;5.624;2022-11-15T05:49:49;100855.61;;;17.46;63.44
63194;BME280;49289;51.670;5.624;2022-11-15T05:51:36;100835.22;;;17.37;63.42
63194;BME280;49289;51.670;5.624;2022-11-15T05:53:25;100856.48;;;17.51;63.42
63194;BME280;49289;51.670;5.624;2022-11-15T05:55:13;100851.09;;;17.44;63.61
63194;BME280;49289;51.670;5.624;2022-11-15T05:57:01;100856.75;;;17.45;63.50
63194;BME280;49289;51.670;5.624;2022-11-15T05:58:48;100844.48;;;17.35;63.60
63194;BME280;49289;51.670;5.624;2022-11-15T06:00:35;100850.13;;;17.35;63.55
63194;BME280;49289;51.670;5.624;2022-11-15T06:02:23;100870.22;;;17.24;64.25
63194;BME280;49289;51.670;5.624;2022-11-15T06:04:11;100853.73;;;17.25;64.05
63194;BME280;49289;51.670;5.624;2022-11-15T06:05:59;100851.47;;;17.36;63.66
63194;BME280;49289;51.670;5.624;2022-11-15T06:07:48;100848.92;;;17.38;63.71
63194;BME280;49289;51.670;5.624;2022-11-15T06:09:36;100864.92;;;17.31;64.07
63194;BME280;49289;51.670;5.624;2022-11-15T06:11:23;100852.77;;;17.34;63.97
63194;BME280;49289;51.670;5.624;2022-11-15T06:13:10;100850.58;;;17.42;63.74
63194;BME280;49289;51.670;5.624;2022-11-15T06:14:57;100850.64;;;17.47;63.60
63194;BME280;49289;51.670;5.624;2022-11-15T06:16:44;100843.87;;;17.51;63.45
63194;BME280;49289;51.670;5.624;2022-11-15T06:18:31;100860.47;;;17.58;63.56
63194;BME280;49289;51.670;5.624;2022-11-15T06:20:19;100857.33;;;17.59;63.57
63194;BME280;49289;51.670;5.624;2022-11-15T06:22:06;100843.10;;;17.48;63.70
63194;BME280;49289;51.670;5.624;2022-11-15T06:23:53;100845.58;;;17.54;63.48
63194;BME280;49289;51.670;5.624;2022-11-15T06:25:42;100857.33;;;17.63;63.50
63194;BME280;49289;51.670;5.624;2022-11-15T06:27:30;100865.89;;;17.64;63.40
63194;BME280;49289;51.670;5.624;2022-11-15T06:29:18;100849.12;;;17.52;63.70
63194;BME280;49289;51.670;5.624;2022-11-15T06:31:09;100868.02;;;17.62;63.71
63194;BME280;49289;51.670;5.624;2022-11-15T06:32:56;100876.33;;;17.59;63.59
63194;BME280;49289;51.670;5.624;2022-11-15T06:34:44;100876.69;;;17.65;63.52
63194;BME280;49289;51.670;5.624;2022-11-15T06:36:33;100874.60;;;17.64;63.44
63194;BME280;49289;51.670;5.624;2022-11-15T06:38:20;100878.48;;;17.62;63.59
63194;BME280;49289;51.670;5.624;2022-11-15T06:40:08;100885.20;;;17.52;63.91
63194;BME280;49289;51.670;5.624;2022-11-15T06:41:55;100866.54;;;17.45;63.95
63194;BME280;49289;51.670;5.624;2022-11-15T06:43:42;100870.11;;;17.41;64.09
63194;BME280;49289;51.670;5.624;2022-11-15T06:45:29;100883.98;;;17.64;63.81
63194;BME280;49289;51.670;5.624;2022-11-15T06:47:16;100884.90;;;17.69;63.66
63194;BME280;49289;51.670;5.624;2022-11-15T06:49:03;100875.05;;;17.55;63.66
63194;BME280;49289;51.670;5.624;2022-11-15T06:50:56;100895.30;;;17.56;63.99
63194;BME280;49289;51.670;5.624;2022-11-15T06:52:42;100902.97;;;17.53;64.05
63194;BME280;49289;51.670;5.624;2022-11-15T06:54:29;100893.42;;;17.51;63.86
63194;BME280;49289;51.670;5.624;2022-11-15T06:56:17;100905.98;;;17.60;63.80
63194;BME280;49289;51.670;5.624;2022-11-15T06:58:05;100896.23;;;17.40;64.03
63194;BME280;49289;51.670;5.624;2022-11-15T06:59:53;100909.90;;;17.39;64.74
63194;BME280;49289;51.670;5.624;2022-11-15T07:01:41;100910.85;;;17.52;64.33
63194;BME280;49289;51.670;5.624;2022-11-15T07:03:29;100914.51;;;17.46;64.54
63194;BME280;49289;51.670;5.624;2022-11-15T07:05:16;100910.00;;;17.44;64.67
63194;BME280;49289;51.670;5.624;2022-11-15T07:07:04;100908.78;;;17.53;64.35
63194;BME280;49289;51.670;5.624;2022-11-15T07:08:53;100905.42;;;17.43;64.80
63194;BME280;49289;51.670;5.624;2022-11-15T07:10:41;100904.55;;;17.53;64.58
63194;BME280;49289;51.670;5.624;2022-11-15T07:12:29;100903.48;;;17.60;64.23
63194;BME280;49289;51.670;5.624;2022-11-15T07:14:16;100887.77;;;17.58;64.05
63194;BME280;49289;51.670;5.624;2022-11-15T07:16:03;100913.38;;;17.70;63.99
63194;BME280;49289;51.670;5.624;2022-11-15T07:17:50;100881.97;;;17.41;64.43
63194;BME280;49289;51.670;5.624;2022-11-15T07:19:37;100885.77;;;17.43;64.39
63194;BME280;49289;51.670;5.624;2022-11-15T07:21:24;100889.98;;;17.55;64.13
63194;BME280;49289;51.670;5.624;2022-11-15T07:23:12;100905.61;;;17.22;65.32
63194;BME280;49289;51.670;5.624;2022-11-15T07:25:00;100906.09;;;17.43;64.90
63194;BME280;49289;51.670;5.624;2022-11-15T07:26:48;100896.54;;;17.49;64.56
63194;BME280;49289;51.670;5.624;2022-11-15T07:28:36;100900.29;;;16.97;65.99
63194;BME280;49289;51.670;5.624;2022-11-15T07:30:25;100899.45;;;16.82;66.47
63194;BME280;49289;51.670;5.624;2022-11-15T07:32:12;100913.33;;;17.28;65.68
63194;BME280;49289;51.670;5.624;2022-11-15T07:33:59;100922.77;;;17.40;65.16
63194;BME280;49289;51.670;5.624;2022-11-15T07:35:46;100909.89;;;17.11;65.67
63194;BME280;49289;51.670;5.624;2022-11-15T07:37:34;100923.12;;;17.23;65.79
63194;BME280;49289;51.670;5.624;2022-11-15T07:39:22;100910.86;;;17.30;65.51
63194;BME280;49289;51.670;5.624;2022-11-15T07:41:11;100923.61;;;17.57;64.88
63194;BME280;49289;51.670;5.624;2022-11-15T07:43:05;100916.62;;;17.67;64.55
63194;BME280;49289;51.670;5.624;2022-11-15T07:44:52;100895.98;;;17.51;64.50
63194;BME280;49289;51.670;5.624;2022-11-15T07:46:40;100916.20;;;17.70;64.33
63194;BME280;49289;51.670;5.624;2022-11-15T07:48:28;100902.76;;;17.66;64.31
63194;BME280;49289;51.670;5.624;2022-11-15T07:50:16;100915.03;;;17.69;64.31
63194;BME280;49289;51.670;5.624;2022-11-15T07:52:04;100914.30;;;17.70;64.30
63194;BME280;49289;51.670;5.624;2022-11-15T07:53:52;100895.41;;;17.62;64.32
63194;BME280;49289;51.670;5.624;2022-11-15T07:55:41;100895.18;;;17.64;64.27
63194;BME280;49289;51.670;5.624;2022-11-15T07:57:29;100893.28;;;17.69;64.15
63194;BME280;49289;51.670;5.624;2022-11-15T07:59:17;100899.38;;;17.72;65.40
63194;BME280;49289;51.670;5.624;2022-11-15T08:01:08;100889.82;;;17.71;64.74
63194;BME280;49289;51.670;5.624;2022-11-15T08:02:55;100906.92;;;17.67;64.85
63194;BME280;49289;51.670;5.624;2022-11-15T08:05:31;100884.30;;;17.68;64.79
63194;BME280;49289;51.670;5.624;2022-11-15T08:07:19;100887.40;;;17.48;65.54
63194;BME280;49289;51.670;5.624;2022-11-15T08:09:07;100892.56;;;17.56;65.29
63194;BME280;49289;51.670;5.624;2022-11-15T08:10:56;100903.91;;;17.70;65.41
63194;BME280;49289;51.670;5.624;2022-11-15T08:12:43;100907.29;;;17.68;65.39
63194;BME280;49289;51.670;5.624;2022-11-15T08:14:30;100892.66;;;17.57;65.43
63194;BME280;49289;51.670;5.624;2022-11-15T08:16:17;100904.87;;;17.73;65.28
63194;BME280;49289;51.670;5.624;2022-11-15T08:18:09;100905.79;;;17.81;65.02
63194;BME280;49289;51.670;5.624;2022-11-15T08:19:55;100916.90;;;17.80;64.87
63194;BME280;49289;51.670;5.624;2022-11-15T08:21:43;100917.78;;;17.67;64.94
63194;BME280;49289;51.670;5.624;2022-11-15T08:23:31;100903.88;;;17.58;65.18
63194;BME280;49289;51.670;5.624;2022-11-15T08:25:18;100918.46;;;17.44;65.71
63194;BME280;49289;51.670;5.624;2022-11-15T08:27:07;100919.70;;;17.34;65.60
63194;BME280;49289;51.670;5.624;2022-11-15T08:28:55;100903.30;;;17.29;65.48
63194;BME280;49289;51.670;5.624;2022-11-15T08:30:43;100921.59;;;17.39;65.31
63194;BME280;49289;51.670;5.624;2022-11-15T08:32:31;100902.02;;;16.96;65.74
63194;BME280;49289;51.670;5.624;2022-11-15T08:34:20;100913.07;;;17.18;65.86
63194;BME280;49289;51.670;5.624;2022-11-15T08:36:10;100920.57;;;17.09;66.08
63194;BME280;49289;51.670;5.624;2022-11-15T08:37:57;100916.00;;;17.24;65.88
63194;BME280;49289;51.670;5.624;2022-11-15T08:39:45;100920.77;;;17.43;64.96
63194;BME280;49289;51.670;5.624;2022-11-15T08:41:36;100915.10;;;17.54;64.98
63194;BME280;49289;51.670;5.624;2022-11-15T08:43:22;100896.00;;;17.08;65.90
63194;BME280;49289;51.670;5.624;2022-11-15T08:45:10;100899.38;;;17.40;65.15
63194;BME280;49289;51.670;5.624;2022-11-15T08:46:58;100914.74;;;17.41;65.31
63194;BME280;49289;51.670;5.624;2022-11-15T08:48:46;100907.63;;;17.21;65.30
63194;BME280;49289;51.670;5.624;2022-11-15T08:50:34;100912.02;;;17.52;64.69
63194;BME280;49289;51.670;5.624;2022-11-15T08:52:22;100911.59;;;17.20;65.21
63194;BME280;49289;51.670;5.624;2022-11-15T08:54:10;100886.13;;;17.08;65.38
63194;BME280;49289;51.670;5.624;2022-11-15T08:55:58;100878.88;;;16.84;65.91
63194;BME280;49289;51.670;5.624;2022-11-15T08:57:45;100889.26;;;17.11;65.60
63194;BME280;49289;51.670;5.624;2022-11-15T08:59:32;100883.90;;;17.08;64.85
63194;BME280;49289;51.670;5.624;2022-11-15T09:01:24;100894.20;;;17.04;65.57
63194;BME280;49289;51.670;5.624;2022-11-15T09:03:12;100880.14;;;17.18;65.02
63194;BME280;49289;51.670;5.624;2022-11-15T09:04:59;100874.72;;;17.16;64.94
63194;BME280;49289;51.670;5.624;2022-11-15T09:06:46;100886.42;;;17.10;65.38
63194;BME280;49289;51.670;5.624;2022-11-15T09:08:34;100869.30;;;16.78;66.13
63194;BME280;49289;51.670;5.624;2022-11-15T09:10:22;100882.85;;;17.16;65.17
63194;BME280;49289;51.670;5.624;2022-11-15T09:12:11;100868.23;;;17.09;64.95
63194;BME280;49289;51.670;5.624;2022-11-15T09:13:58;100882.55;;;16.85;64.84
63194;BME280;49289;51.670;5.624;2022-11-15T09:15:47;100891.17;;;16.91;65.20
63194;BME280;49289;51.670;5.624;2022-11-15T09:17:35;100878.30;;;16.84;65.18
63194;BME280;49289;51.670;5.624;2022-11-15T09:19:23;100889.10;;;16.97;65.06
63194;BME280;49289;51.670;5.624;2022-11-15T09:21:11;100884.20;;;17.06;64.71
63194;BME280;49289;51.670;5.624;2022-11-15T09:22:59;100873.25;;;17.12;63.93
63194;BME280;49289;51.670;5.624;2022-11-15T09:24:46;100861.22;;;17.11;64.56
63194;BME280;49289;51.670;5.624;2022-11-15T09:26:33;100878.27;;;17.30;64.02
63194;BME280;49289;51.670;5.624;2022-11-15T09:28:20;100876.73;;;17.28;63.89